Time;durP1;ratioP1;P1;durP2;ratioP2;P2;SDS_P1;SDS_P2;PMS_P1;PMS_P2;Temp;Humidity;BMP_temperature;BMP_pressure;BME280_temperature;BME280_humidity;BME280_pressure;Samples;Min_cycle;Max_cycle;Signal;HPM_P1;HPM_P2
2022/07/15 00:00:04;;;;;;;10.05;2.67;;;15.50;99.90;;;;;;5087259;28;20048;-66
2022/07/15 00:02:30;;;;;;;9.45;2.28;;;15.50;99.90;;;;;;5089612;28;20040;-66
2022/07/15 00:04:56;;;;;;;10.38;2.00;;;15.50;99.90;;;;;;5090964;28;20046;-66
2022/07/15 00:07:21;;;;;;;8.60;2.30;;;15.50;99.90;;;;;;5090496;28;20040;-66
2022/07/15 00:12:31;;;;;;;11.32;2.25;;;15.40;99.90;;;;;;5071589;28;20084;-67
2022/07/15 00:14:58;;;;;;;7.35;1.85;;;15.40;99.90;;;;;;5069588;28;20121;-67
2022/07/15 00:17:23;;;;;;;7.97;2.00;;;15.40;99.90;;;;;;5033226;28;20496;-67
2022/07/15 00:19:49;;;;;;;7.40;2.10;;;15.50;99.90;;;;;;5050744;28;20045;-67
2022/07/15 00:22:15;;;;;;;9.40;2.10;;;15.40;99.90;;;;;;5050014;28;20045;-67
2022/07/15 00:24:40;;;;;;;8.25;2.22;;;15.40;99.90;;;;;;5080643;28;20109;-66
2022/07/15 00:27:06;;;;;;;10.43;1.92;;;15.50;99.90;;;;;;5089099;28;20036;-67
2022/07/15 00:29:32;;;;;;;13.13;2.47;;;15.40;99.90;;;;;;5090704;28;20429;-66
2022/07/15 00:31:58;;;;;;;11.10;2.42;;;15.80;99.90;;;;;;5093153;28;20048;-67
2022/07/15 00:34:23;;;;;;;10.65;2.13;;;15.40;99.90;;;;;;5092781;28;20114;-66
2022/07/15 00:36:49;;;;;;;7.63;2.00;;;15.40;99.90;;;;;;5093056;28;20123;-66
2022/07/15 00:39:16;;;;;;;8.65;1.88;;;15.40;99.90;;;;;;5076212;28;20040;-66
2022/07/15 00:41:42;;;;;;;9.18;2.15;;;15.40;99.90;;;;;;5058246;28;20362;-66
2022/07/15 00:44:08;;;;;;;7.78;2.10;;;16.00;99.90;;;;;;5062698;28;20378;-67
2022/07/15 00:46:35;;;;;;;10.65;1.90;;;15.40;99.90;;;;;;5050086;28;20049;-67
2022/07/15 00:49:06;;;;;;;11.57;2.20;;;15.40;99.90;;;;;;5049118;28;20043;-66
2022/07/15 00:51:46;;;;;;;7.25;2.22;;;15.40;99.90;;;;;;5089089;28;20036;-67
2022/07/15 00:54:14;;;;;;;6.88;2.10;;;15.40;99.90;;;;;;5073493;28;20048;-67
2022/07/15 00:56:48;;;;;;;10.30;2.13;;;15.40;99.90;;;;;;5051667;28;20125;-67
2022/07/15 00:59:15;;;;;;;9.85;2.10;;;15.30;99.90;;;;;;5070112;28;20484;-66
2022/07/15 01:01:41;;;;;;;10.90;2.38;;;15.30;99.90;;;;;;5060616;28;20170;-67
2022/07/15 01:04:09;;;;;;;9.48;2.30;;;15.20;99.90;;;;;;5069692;28;20036;-67
2022/07/15 01:06:34;;;;;;;10.25;2.42;;;15.60;99.90;;;;;;5082875;28;20039;-67
2022/07/15 01:09:00;;;;;;;12.13;2.40;;;15.20;99.90;;;;;;5057380;28;20496;-67
2022/07/15 01:11:30;;;;;;;8.40;2.10;;;16.00;99.90;;;;;;5048880;28;20414;-67
2022/07/15 01:13:56;;;;;;;9.27;2.30;;;15.30;99.90;;;;;;5031280;28;20116;-67
2022/07/15 01:16:22;;;;;;;7.20;2.03;;;15.20;99.90;;;;;;5065789;28;20420;-67
2022/07/15 01:18:48;;;;;;;7.47;2.10;;;15.20;99.90;;;;;;5089702;28;20036;-66
2022/07/15 01:21:13;;;;;;;10.27;2.15;;;15.60;99.90;;;;;;5080389;28;20039;-67
2022/07/15 01:23:42;;;;;;;6.93;1.85;;;15.20;99.90;;;;;;5069440;28;20121;-67
2022/07/15 01:26:09;;;;;;;9.88;2.10;;;15.20;99.90;;;;;;5069654;28;20051;-67
2022/07/15 01:28:35;;;;;;;6.70;1.80;;;15.20;99.90;;;;;;5069525;28;20056;-67
2022/07/15 01:31:00;;;;;;;9.48;2.05;;;15.20;99.90;;;;;;5075755;28;20040;-67
2022/07/15 01:33:26;;;;;;;8.75;1.95;;;15.20;99.90;;;;;;5077771;28;20196;-67
2022/07/15 01:35:54;;;;;;;10.98;2.05;;;15.40;99.90;;;;;;5051811;28;20127;-67
2022/07/15 01:38:20;;;;;;;6.28;1.70;;;15.20;99.90;;;;;;5072774;28;20037;-67
2022/07/15 01:40:46;;;;;;;9.90;2.00;;;15.20;99.90;;;;;;5069910;28;20426;-67
2022/07/15 01:43:11;;;;;;;7.35;1.70;;;15.20;99.90;;;;;;5068559;28;20105;-67
2022/07/15 01:45:37;;;;;;;8.90;2.05;;;15.20;99.90;;;;;;5068519;28;20460;-67
2022/07/15 01:48:03;;;;;;;6.40;1.67;;;15.20;99.90;;;;;;5070233;28;20033;-67
2022/07/15 01:50:28;;;;;;;6.10;1.60;;;15.20;99.90;;;;;;5069639;28;20048;-67
2022/07/15 01:52:54;;;;;;;6.85;1.80;;;15.20;99.90;;;;;;5068430;28;20090;-67
2022/07/15 01:55:19;;;;;;;11.23;1.92;;;15.20;99.90;;;;;;5068614;28;20518;-68
2022/07/15 01:57:45;;;;;;;11.10;1.90;;;15.20;99.90;;;;;;5074387;28;20041;-67
2022/07/15 02:00:12;;;;;;;8.75;1.88;;;15.20;99.90;;;;;;5049433;28;20935;-67
2022/07/15 02:02:37;;;;;;;6.43;1.67;;;15.20;99.90;;;;;;5080578;28;20040;-67
2022/07/15 02:05:04;;;;;;;8.13;1.80;;;15.30;99.90;;;;;;5068925;28;20094;-67
2022/07/15 02:07:29;;;;;;;5.43;1.52;;;15.20;99.90;;;;;;5049832;28;20048;-67
2022/07/15 02:09:55;;;;;;;4.30;1.45;;;15.00;99.90;;;;;;5068986;28;20036;-67
2022/07/15 02:12:20;;;;;;;6.03;1.65;;;15.00;99.90;;;;;;5068138;28;20070;-67
2022/07/15 02:14:46;;;;;;;4.78;1.52;;;15.00;99.90;;;;;;5067784;28;20056;-67
2022/07/15 02:17:12;;;;;;;5.35;1.45;;;15.20;99.90;;;;;;5069000;28;20037;-67
2022/07/15 02:19:37;;;;;;;7.28;1.60;;;14.90;99.90;;;;;;5071323;28;20067;-67
2022/07/15 02:22:03;;;;;;;6.20;1.50;;;14.90;99.90;;;;;;5070399;28;20047;-67
2022/07/15 02:24:28;;;;;;;6.47;1.60;;;14.80;99.90;;;;;;5068933;28;20040;-67
2022/07/15 02:26:54;;;;;;;7.03;1.75;;;15.10;99.90;;;;;;5068703;28;20044;-67
2022/07/15 02:29:20;;;;;;;7.07;1.58;;;14.70;99.90;;;;;;5069903;28;20044;-67
2022/07/15 02:31:46;;;;;;;7.63;1.70;;;14.70;99.90;;;;;;5054071;28;20047;-67
2022/07/15 02:34:11;;;;;;;5.75;1.50;;;14.70;99.90;;;;;;5069136;28;20128;-67
2022/07/15 02:36:38;;;;;;;6.47;1.77;;;14.70;99.90;;;;;;5069747;28;20119;-67
2022/07/15 02:39:04;;;;;;;8.43;1.60;;;14.60;99.90;;;;;;5070339;28;20086;-66
2022/07/15 02:41:30;;;;;;;8.07;1.55;;;14.70;99.90;;;;;;5069228;28;20482;-67
2022/07/15 02:43:56;;;;;;;5.50;1.60;;;14.60;99.90;;;;;;5067780;28;20107;-67
2022/07/15 02:46:22;;;;;;;4.90;1.27;;;14.60;99.90;;;;;;5068108;28;20453;-67
2022/07/15 02:48:47;;;;;;;5.30;1.50;;;14.50;99.90;;;;;;5057180;28;20485;-67
2022/07/15 02:51:14;;;;;;;5.43;1.33;;;15.10;99.90;;;;;;5088912;28;20055;-67
2022/07/15 02:53:40;;;;;;;4.57;1.40;;;15.20;99.90;;;;;;5088212;28;20380;-67
2022/07/15 02:56:06;;;;;;;5.47;1.67;;;14.40;99.90;;;;;;5087234;28;20043;-67
2022/07/15 02:58:32;;;;;;;6.72;1.70;;;14.40;99.90;;;;;;5088065;28;20438;-67
2022/07/15 03:00:59;;;;;;;5.68;1.63;;;14.40;99.90;;;;;;5074240;28;20098;-68
2022/07/15 03:03:27;;;;;;;4.72;1.60;;;14.40;99.90;;;;;;5088153;28;20368;-67
2022/07/15 03:05:55;;;;;;;8.68;1.60;;;14.50;99.90;;;;;;5070231;28;20044;-67
2022/07/15 03:08:20;;;;;;;11.10;2.13;;;14.30;99.90;;;;;;5089533;28;20044;-67
2022/07/15 03:10:46;;;;;;;6.38;1.52;;;14.60;99.90;;;;;;5091354;28;20048;-67
2022/07/15 03:13:12;;;;;;;7.15;1.85;;;14.30;99.90;;;;;;5087048;28;20074;-67
2022/07/15 03:15:37;;;;;;;7.45;1.70;;;14.40;99.90;;;;;;5087932;28;20515;-67
2022/07/15 03:18:03;;;;;;;6.18;1.58;;;14.30;99.90;;;;;;5090241;28;20044;-67
2022/07/15 03:20:29;;;;;;;7.88;1.85;;;14.30;99.90;;;;;;5090054;28;20051;-67
2022/07/15 03:22:54;;;;;;;6.75;1.92;;;14.30;99.90;;;;;;5089102;28;20044;-67
2022/07/15 03:25:20;;;;;;;6.53;2.00;;;14.20;99.90;;;;;;5086760;28;20036;-67
2022/07/15 03:27:45;;;;;;;6.47;1.77;;;14.70;99.90;;;;;;5087550;28;20048;-67
2022/07/15 03:30:11;;;;;;;5.30;1.52;;;14.20;99.90;;;;;;5084528;28;20596;-67
2022/07/15 03:32:37;;;;;;;6.72;1.60;;;14.20;99.90;;;;;;5071354;28;20056;-67
2022/07/15 03:35:03;;;;;;;6.88;1.70;;;14.50;99.90;;;;;;5072218;28;20123;-67
2022/07/15 03:37:28;;;;;;;5.68;1.55;;;14.20;99.90;;;;;;5071188;28;20050;-67
2022/07/15 03:39:54;;;;;;;7.05;1.90;;;15.20;99.90;;;;;;5074358;28;20044;-66
2022/07/15 03:42:19;;;;;;;6.28;1.65;;;14.30;99.90;;;;;;5072306;28;20071;-67
2022/07/15 03:44:45;;;;;;;5.40;1.58;;;14.30;99.90;;;;;;5069974;28;20088;-66
2022/07/15 03:47:11;;;;;;;7.32;1.90;;;15.00;99.90;;;;;;5071729;28;20036;-67
2022/07/15 03:49:37;;;;;;;9.48;1.70;;;15.30;99.90;;;;;;5071120;28;20041;-67
2022/07/15 03:52:03;;;;;;;6.50;1.88;;;14.30;99.90;;;;;;5071178;28;20040;-69
2022/07/15 03:54:28;;;;;;;5.10;1.60;;;14.30;99.90;;;;;;5054101;28;20120;-67
2022/07/15 03:56:54;;;;;;;6.63;1.70;;;14.30;99.90;;;;;;5071258;28;20449;-67
2022/07/15 03:59:20;;;;;;;5.25;1.67;;;14.40;99.90;;;;;;5052508;28;20800;-67
2022/07/15 04:01:48;;;;;;;5.15;1.50;;;14.30;99.90;;;;;;5070709;28;20033;-67
2022/07/15 04:04:14;;;;;;;5.35;1.33;;;14.30;99.90;;;;;;5053605;28;20098;-67
2022/07/15 04:06:40;;;;;;;7.50;1.70;;;14.30;99.90;;;;;;5071306;28;20496;-67
2022/07/15 04:09:06;;;;;;;7.43;1.67;;;15.00;99.90;;;;;;5086417;28;20036;-67
2022/07/15 04:11:31;;;;;;;6.55;1.55;;;14.60;99.90;;;;;;5070611;28;20061;-67
2022/07/15 04:13:58;;;;;;;4.47;1.40;;;14.30;99.90;;;;;;5051695;28;20106;-67
2022/07/15 04:16:24;;;;;;;5.93;1.77;;;14.30;99.90;;;;;;5055256;28;20435;-67
2022/07/15 04:18:51;;;;;;;5.60;1.60;;;14.30;99.90;;;;;;5073240;28;20052;-67
2022/07/15 04:21:17;;;;;;;5.90;1.63;;;14.40;99.90;;;;;;5033933;28;20048;-67
2022/07/15 04:23:42;;;;;;;5.55;1.40;;;14.30;99.90;;;;;;5050651;28;20451;-66
2022/07/15 04:26:08;;;;;;;5.60;1.50;;;14.80;99.90;;;;;;5050330;28;20109;-66
2022/07/15 04:28:33;;;;;;;7.65;1.80;;;14.50;99.90;;;;;;5049727;28;20497;-66
2022/07/15 04:30:59;;;;;;;6.10;1.60;;;14.40;99.90;;;;;;5082393;28;20059;-69
2022/07/15 04:33:25;;;;;;;5.85;1.77;;;14.70;99.90;;;;;;5081574;28;20489;-66
2022/07/15 04:35:50;;;;;;;4.00;1.20;;;15.00;99.90;;;;;;5070624;28;20044;-66
2022/07/15 04:38:16;;;;;;;5.90;1.40;;;14.40;99.90;;;;;;5071034;28;20381;-66
2022/07/15 04:40:42;;;;;;;4.47;1.33;;;14.50;99.90;;;;;;5068814;28;20050;-67
2022/07/15 04:43:08;;;;;;;5.00;1.35;;;15.00;99.90;;;;;;5051778;28;20393;-66
2022/07/15 04:45:35;;;;;;;3.80;1.23;;;14.60;99.90;;;;;;5069715;28;20052;-66
2022/07/15 04:48:00;;;;;;;3.97;1.17;;;14.70;99.90;;;;;;5070068;28;20064;-66
2022/07/15 04:53:10;;;;;;;3.08;1.08;;;14.80;99.90;;;;;;5051647;28;20048;-66
2022/07/15 04:55:36;;;;;;;4.35;1.27;;;14.80;99.90;;;;;;5084706;28;20396;-66
2022/07/15 04:58:02;;;;;;;3.33;1.30;;;14.90;99.90;;;;;;5089729;28;20070;-67
2022/07/15 05:00:28;;;;;;;5.18;1.25;;;15.30;99.90;;;;;;5088183;28;20040;-66
2022/07/15 05:02:53;;;;;;;4.47;1.30;;;15.00;99.90;;;;;;5063314;28;20021;-67
2022/07/15 05:05:19;;;;;;;4.35;1.25;;;15.00;99.90;;;;;;5055156;28;20051;-66
2022/07/15 05:07:45;;;;;;;5.72;1.40;;;15.00;99.90;;;;;;5078309;28;20064;-66
2022/07/15 05:10:12;;;;;;;6.43;1.40;;;15.00;99.90;;;;;;5056539;28;20068;-66
2022/07/15 05:12:38;;;;;;;4.75;1.50;;;15.00;99.90;;;;;;5049538;28;20037;-67
2022/07/15 05:15:04;;;;;;;5.60;1.38;;;15.10;99.90;;;;;;5061651;28;20119;-67
2022/07/15 05:17:30;;;;;;;6.35;1.60;;;15.10;99.90;;;;;;5050673;28;20040;-67
2022/07/15 05:19:56;;;;;;;3.47;1.25;;;15.10;99.90;;;;;;5070099;28;20040;-68
2022/07/15 05:22:22;;;;;;;4.60;1.40;;;15.20;99.90;;;;;;5087206;28;20119;-67
2022/07/15 05:24:48;;;;;;;6.70;1.60;;;15.20;99.90;;;;;;5088966;28;20445;-67
2022/07/15 05:27:13;;;;;;;3.35;1.27;;;15.20;99.90;;;;;;5071468;28;20083;-67
2022/07/15 05:29:39;;;;;;;5.60;1.77;;;15.30;99.90;;;;;;5088628;28;20044;-68
2022/07/15 05:32:05;;;;;;;5.40;1.50;;;15.20;99.90;;;;;;5088949;28;20055;-68
2022/07/15 05:34:31;;;;;;;4.32;1.52;;;15.30;99.90;;;;;;5089557;28;20060;-68
2022/07/15 05:36:57;;;;;;;6.10;1.65;;;15.30;99.90;;;;;;5079467;28;20166;-68
2022/07/15 05:39:23;;;;;;;7.22;1.50;;;15.50;99.90;;;;;;5069421;28;20067;-68
2022/07/15 05:41:49;;;;;;;8.00;1.70;;;15.50;99.90;;;;;;5054578;28;20091;-68
2022/07/15 05:44:14;;;;;;;7.20;1.48;;;16.20;99.90;;;;;;5088166;28;20039;-68
2022/07/15 05:46:40;;;;;;;5.95;1.75;;;15.60;99.90;;;;;;5088913;28;20048;-68
2022/07/15 05:49:06;;;;;;;6.55;1.40;;;15.90;99.90;;;;;;5071217;28;20047;-68
2022/07/15 05:51:33;;;;;;;6.32;1.70;;;15.90;99.90;;;;;;5088734;28;20412;-68
2022/07/15 05:53:59;;;;;;;5.70;1.55;;;15.80;99.90;;;;;;5070156;28;20063;-68
2022/07/15 05:56:25;;;;;;;5.55;1.40;;;15.90;99.90;;;;;;5070396;28;20045;-68
2022/07/15 05:58:50;;;;;;;6.57;1.38;;;15.90;99.90;;;;;;5068895;28;20048;-68
2022/07/15 06:01:16;;;;;;;5.47;1.50;;;15.90;99.90;;;;;;5050635;28;20491;-68
2022/07/15 06:03:42;;;;;;;2.60;1.13;;;15.90;99.90;;;;;;5070002;28;20101;-68
2022/07/15 06:06:08;;;;;;;5.97;1.27;;;15.90;99.90;;;;;;5086225;28;20070;-68
2022/07/15 06:08:35;;;;;;;5.43;1.30;;;15.90;99.90;;;;;;5069905;28;20548;-68
2022/07/15 06:11:01;;;;;;;4.28;1.38;;;15.90;99.90;;;;;;5067474;28;20049;-68
2022/07/15 06:13:27;;;;;;;5.85;1.50;;;16.30;99.90;;;;;;5067858;28;20128;-68
2022/07/15 06:15:52;;;;;;;8.15;1.63;;;16.00;99.90;;;;;;5077705;28;20119;-68
2022/07/15 06:18:18;;;;;;;6.65;1.40;;;15.90;99.90;;;;;;5062278;28;20155;-68
2022/07/15 06:20:44;;;;;;;6.68;1.58;;;16.00;99.90;;;;;;5071379;28;20041;-68
2022/07/15 06:23:10;;;;;;;7.45;1.45;;;16.00;99.90;;;;;;5068791;28;20451;-68
2022/07/15 06:25:36;;;;;;;7.38;1.25;;;15.80;99.90;;;;;;5064677;28;20054;-68
2022/07/15 06:28:02;;;;;;;6.78;1.40;;;15.80;99.90;;;;;;5068314;28;20510;-68
2022/07/15 06:30:28;;;;;;;6.13;1.30;;;15.80;99.90;;;;;;5067489;28;20044;-68
2022/07/15 06:32:54;;;;;;;4.93;1.60;;;15.90;99.90;;;;;;5050548;28;20046;-68
2022/07/15 06:35:20;;;;;;;4.97;1.45;;;15.60;99.90;;;;;;5067251;28;20048;-68
2022/07/15 06:37:46;;;;;;;4.00;1.15;;;15.90;99.90;;;;;;5069344;28;20040;-68
2022/07/15 06:40:12;;;;;;;6.43;1.40;;;16.10;99.90;;;;;;5068160;28;20059;-68
2022/07/15 06:42:38;;;;;;;4.07;1.27;;;16.10;99.90;;;;;;5066535;28;20040;-68
2022/07/15 06:45:04;;;;;;;4.55;1.50;;;16.10;99.90;;;;;;5068099;28;20059;-68
2022/07/15 06:47:31;;;;;;;4.93;1.48;;;16.20;99.90;;;;;;5067254;28;20124;-68
2022/07/15 06:49:57;;;;;;;5.78;1.50;;;16.20;99.90;;;;;;5068251;28;20049;-68
2022/07/15 06:52:23;;;;;;;4.53;1.23;;;16.20;99.90;;;;;;5070247;28;20102;-68
2022/07/15 06:54:48;;;;;;;6.25;1.38;;;16.20;99.90;;;;;;5067846;28;20422;-68
2022/07/15 06:57:16;;;;;;;5.32;1.33;;;16.10;99.90;;;;;;5067767;28;20124;-68
2022/07/15 06:59:43;;;;;;;4.90;1.38;;;16.10;99.90;;;;;;5048795;28;20056;-68
2022/07/15 07:02:08;;;;;;;4.20;1.23;;;16.20;99.90;;;;;;5067182;28;20040;-68
2022/07/15 07:04:34;;;;;;;7.75;1.70;;;16.20;99.90;;;;;;5069874;28;20079;-68
2022/07/15 07:07:00;;;;;;;5.75;1.30;;;16.30;99.90;;;;;;5067569;28;20097;-68
2022/07/15 07:09:25;;;;;;;4.25;1.30;;;16.30;99.90;;;;;;5067186;28;20068;-68
2022/07/15 07:11:51;;;;;;;7.68;1.58;;;16.40;99.90;;;;;;5068119;28;20131;-68
2022/07/15 07:14:18;;;;;;;7.60;1.80;;;16.50;99.90;;;;;;5068395;28;20052;-68
2022/07/15 07:16:45;;;;;;;9.82;1.67;;;16.40;99.90;;;;;;5066320;28;20097;-68
2022/07/15 07:19:11;;;;;;;7.75;1.42;;;16.50;99.90;;;;;;5067847;28;20036;-68
2022/07/15 07:21:36;;;;;;;3.85;1.40;;;16.70;99.90;;;;;;5049656;28;20344;-68
2022/07/15 07:24:02;;;;;;;4.10;1.48;;;16.70;99.90;;;;;;5048489;28;20079;-68
2022/07/15 07:26:28;;;;;;;3.95;1.10;;;16.90;99.90;;;;;;5057074;28;20116;-68
2022/07/15 07:28:53;;;;;;;6.18;1.35;;;17.10;99.90;;;;;;5055151;28;20064;-69
2022/07/15 07:31:25;;;;;;;3.10;1.20;;;17.20;99.90;;;;;;5052178;28;20092;-68
2022/07/15 07:33:50;;;;;;;4.10;1.08;;;17.30;99.90;;;;;;5042691;28;20420;-68
2022/07/15 07:36:16;;;;;;;8.73;1.30;;;17.50;99.90;;;;;;5058969;28;20139;-68
2022/07/15 07:38:42;;;;;;;4.55;1.30;;;17.50;99.90;;;;;;5066608;28;20044;-68
2022/07/15 07:41:07;;;;;;;4.50;1.25;;;17.30;99.90;;;;;;5066704;28;20059;-68
2022/07/15 07:43:34;;;;;;;3.67;1.20;;;17.20;99.90;;;;;;5060341;28;20052;-68
2022/07/15 07:46:00;;;;;;;4.75;1.00;;;17.10;99.90;;;;;;5067293;28;20048;-69
2022/07/15 07:48:26;;;;;;;2.40;1.10;;;17.00;99.90;;;;;;5067332;28;20512;-68
2022/07/15 07:50:53;;;;;;;5.10;1.10;;;17.10;99.90;;;;;;5049001;28;20438;-68
2022/07/15 07:53:18;;;;;;;4.85;1.20;;;17.10;99.90;;;;;;5066793;28;20047;-68
2022/07/15 07:55:44;;;;;;;5.78;1.30;;;17.00;99.90;;;;;;5066970;28;20127;-68
2022/07/15 07:58:11;;;;;;;3.80;1.30;;;17.10;99.90;;;;;;5065422;28;20054;-69
2022/07/15 08:00:37;;;;;;;3.35;1.13;;;17.20;99.90;;;;;;5046282;28;20051;-68
2022/07/15 08:03:03;;;;;;;6.20;1.10;;;17.40;99.90;;;;;;5046254;28;20390;-69
2022/07/15 08:05:29;;;;;;;4.93;1.00;;;17.50;99.90;;;;;;5055589;28;20094;-68
2022/07/15 08:08:15;;;;;;;2.42;0.82;;;17.70;99.90;;;;;;5068507;28;20132;-69
2022/07/15 08:10:44;;;;;;;3.45;1.20;;;17.80;99.90;;;;;;5064833;28;20052;-69
2022/07/15 08:13:09;;;;;;;3.92;0.98;;;17.90;99.90;;;;;;5066996;28;20052;-68
2022/07/15 08:15:35;;;;;;;3.38;1.42;;;18.00;99.90;;;;;;5050958;28;20048;-68
2022/07/15 08:18:01;;;;;;;4.75;1.20;;;18.00;99.90;;;;;;5070048;28;20116;-68
2022/07/15 08:20:29;;;;;;;2.28;0.80;;;18.50;99.90;;;;;;5070123;28;20143;-68
2022/07/15 08:22:58;;;;;;;5.25;1.20;;;17.80;99.90;;;;;;5050325;28;20134;-68
2022/07/15 08:25:36;;;;;;;2.45;0.90;;;17.80;99.90;;;;;;5088089;28;20442;-67
2022/07/15 08:28:02;;;;;;;4.90;1.00;;;17.60;99.90;;;;;;5089511;28;20052;-67
2022/07/15 08:30:30;;;;;;;3.80;1.10;;;17.60;99.90;;;;;;5078868;28;20102;-67
2022/07/15 08:32:56;;;;;;;2.47;0.80;;;17.50;99.90;;;;;;5069525;28;20071;-67
2022/07/15 08:35:23;;;;;;;3.08;1.05;;;17.50;99.90;;;;;;5070187;28;20048;-67
2022/07/15 08:37:49;;;;;;;3.35;0.80;;;17.60;99.90;;;;;;5070014;28;20059;-68
2022/07/15 08:40:15;;;;;;;3.50;1.10;;;17.80;99.90;;;;;;5069153;28;20048;-67
2022/07/15 08:42:42;;;;;;;2.63;0.95;;;18.00;99.90;;;;;;5069203;28;20044;-66
2022/07/15 08:45:09;;;;;;;1.45;0.90;;;18.30;99.90;;;;;;5070056;28;20048;-66
2022/07/15 08:47:39;;;;;;;2.28;1.00;;;18.40;99.90;;;;;;5071733;28;20067;-66
2022/07/15 08:50:05;;;;;;;3.35;1.10;;;18.60;99.90;;;;;;5072965;28;20052;-66
2022/07/15 08:52:34;;;;;;;1.95;0.85;;;18.80;99.90;;;;;;5072571;28;20044;-66
2022/07/15 08:55:00;;;;;;;3.80;1.20;;;19.00;99.90;;;;;;5069150;28;20061;-67
2022/07/15 08:57:26;;;;;;;2.72;1.35;;;19.10;99.90;;;;;;5071907;28;20103;-66
2022/07/15 08:59:52;;;;;;;2.85;0.93;;;19.00;99.90;;;;;;5065004;28;20040;-66
2022/07/15 09:02:22;;;;;;;2.80;0.98;;;19.00;99.90;;;;;;5083884;28;20143;-67
2022/07/15 09:05:23;;;;;;;4.13;1.10;;;18.90;99.90;;;;;;5089888;28;20155;-67
2022/07/15 09:08:00;;;;;;;1.38;0.80;;;19.10;99.90;;;;;;5052569;28;20045;-67
2022/07/15 09:10:47;;;;;;;4.00;1.40;;;19.20;99.90;;;;;;5065442;28;20057;-67
2022/07/15 09:13:34;;;;;;;5.40;0.90;;;19.20;99.90;;;;;;5068683;28;20041;-67
2022/07/15 09:16:04;;;;;;;2.78;0.90;;;19.40;99.90;;;;;;5068285;28;20044;-67
2022/07/15 09:18:38;;;;;;;1.63;0.95;;;19.30;99.90;;;;;;5068950;28;20486;-67
2022/07/15 09:21:15;;;;;;;2.80;0.90;;;19.00;99.90;;;;;;5068935;28;20044;-67
2022/07/15 09:23:41;;;;;;;2.30;0.80;;;19.00;99.90;;;;;;5067948;28;20052;-67
2022/07/15 09:26:26;;;;;;;4.82;1.10;;;18.90;99.90;;;;;;5068436;28;20140;-67
2022/07/15 09:28:53;;;;;;;3.92;1.10;;;18.90;99.90;;;;;;5068365;28;20049;-66
2022/07/15 09:34:21;;;;;;;1.42;0.90;;;19.10;99.90;;;;;;5051371;28;20107;-67
2022/07/15 09:36:50;;;;;;;4.32;1.00;;;19.20;99.90;;;;;;5066876;28;20127;-67
2022/07/15 09:39:18;;;;;;;1.70;1.00;;;19.20;99.90;;;;;;5038256;28;20080;-67
2022/07/15 09:41:45;;;;;;;4.50;1.20;;;19.20;99.90;;;;;;5068203;28;20056;-67
2022/07/15 09:44:13;;;;;;;3.80;0.90;;;19.10;99.90;;;;;;5068156;28;20044;-67
2022/07/15 09:46:53;;;;;;;3.65;1.10;;;19.00;99.90;;;;;;5070330;28;20052;-67
2022/07/15 09:49:25;;;;;;;2.83;0.85;;;19.10;99.90;;;;;;5068517;28;20116;-67
2022/07/15 09:52:07;;;;;;;2.88;0.90;;;19.30;99.90;;;;;;5068735;28;20048;-67
2022/07/15 09:54:36;;;;;;;3.45;0.98;;;19.50;99.90;;;;;;5068533;28;20048;-67
2022/07/15 09:57:08;;;;;;;3.65;1.00;;;19.90;99.90;;;;;;5068441;28;20045;-68
2022/07/15 09:59:35;;;;;;;2.45;1.00;;;20.00;99.90;;;;;;5067235;28;20056;-68
2022/07/15 10:02:01;;;;;;;2.15;0.88;;;20.10;99.90;;;;;;5068154;28;20048;-67
2022/07/15 10:04:29;;;;;;;3.20;0.88;;;20.20;99.90;;;;;;5049724;28;20084;-67
2022/07/15 10:06:56;;;;;;;3.67;0.80;;;20.20;99.90;;;;;;5068113;28;20108;-68
2022/07/15 10:09:24;;;;;;;2.80;0.80;;;20.30;99.90;;;;;;5061855;28;20094;-68
2022/07/15 10:11:52;;;;;;;4.78;0.90;;;20.10;99.90;;;;;;5045760;28;20056;-68
2022/07/15 10:14:36;;;;;;;2.85;1.00;;;20.10;99.90;;;;;;5030043;28;20045;-67
2022/07/15 10:17:20;;;;;;;2.15;1.00;;;20.20;99.90;;;;;;5029820;28;20106;-67
2022/07/15 10:20:14;;;;;;;2.47;1.00;;;20.50;99.90;;;;;;5048577;28;20114;-68
2022/07/15 10:23:14;;;;;;;1.92;0.80;;;20.70;99.90;;;;;;5047278;28;20202;-67
2022/07/15 10:25:51;;;;;;;2.50;1.10;;;20.60;99.90;;;;;;5029255;28;20049;-67
2022/07/15 10:28:33;;;;;;;1.90;0.90;;;20.50;99.90;;;;;;5046748;28;20051;-67
2022/07/15 10:31:25;;;;;;;3.50;1.00;;;20.80;99.90;;;;;;5046957;28;20114;-67
2022/07/15 10:34:02;;;;;;;3.03;0.75;;;21.20;99.90;;;;;;5048342;28;20195;-67
2022/07/15 10:36:46;;;;;;;3.38;0.82;;;21.10;99.90;;;;;;5030142;28;20405;-67
2022/07/15 10:39:17;;;;;;;1.52;0.65;;;21.00;99.90;;;;;;5046774;28;20055;-66
2022/07/15 10:41:59;;;;;;;5.30;1.10;;;20.80;99.90;;;;;;5049757;28;20458;-67
2022/07/15 10:44:35;;;;;;;4.28;1.13;;;20.70;99.90;;;;;;5050682;28;20090;-67
2022/07/15 10:47:12;;;;;;;3.65;0.80;;;20.50;99.90;;;;;;5029094;28;20060;-68
2022/07/15 10:49:43;;;;;;;3.40;1.10;;;20.40;99.90;;;;;;5047895;28;20383;-68
2022/07/15 10:52:22;;;;;;;2.20;0.90;;;20.30;99.90;;;;;;5030001;28;20081;-68
2022/07/15 10:54:55;;;;;;;1.33;0.90;;;20.20;99.90;;;;;;5030148;28;20186;-68
2022/07/15 10:57:41;;;;;;;1.20;0.80;;;20.10;99.90;;;;;;5029166;28;20044;-69
2022/07/15 11:00:29;;;;;;;2.45;0.90;;;19.90;99.90;;;;;;5045505;28;20102;-68
2022/07/15 11:03:14;;;;;;;1.95;0.80;;;19.70;99.90;;;;;;5061493;28;20103;-69
2022/07/15 11:05:52;;;;;;;3.55;1.00;;;19.60;99.90;;;;;;5067588;28;20048;-68
2022/07/15 11:08:36;;;;;;;2.30;0.70;;;19.60;99.90;;;;;;5049290;28;20056;-69
2022/07/15 11:11:14;;;;;;;1.08;0.70;;;19.50;99.90;;;;;;5066949;28;20106;-67
2022/07/15 11:13:48;;;;;;;3.25;0.90;;;19.40;99.90;;;;;;5066096;28;20088;-67
2022/07/15 11:16:23;;;;;;;4.28;0.95;;;19.30;99.90;;;;;;5066572;28;20043;-67
2022/07/15 11:18:49;;;;;;;1.85;0.90;;;19.30;99.90;;;;;;5068103;28;20110;-67
2022/07/15 11:21:16;;;;;;;2.75;0.77;;;19.30;99.90;;;;;;5066178;28;20181;-67
2022/07/15 11:23:47;;;;;;;1.30;0.70;;;19.30;99.90;;;;;;5067393;28;20075;-67
2022/07/15 11:26:13;;;;;;;2.00;0.80;;;19.40;99.90;;;;;;5066628;28;20101;-67
2022/07/15 11:28:48;;;;;;;4.38;0.90;;;19.40;99.90;;;;;;5066336;28;20052;-67
2022/07/15 11:31:13;;;;;;;1.73;0.93;;;19.40;99.90;;;;;;5067084;28;20108;-67
2022/07/15 11:33:39;;;;;;;1.95;1.08;;;19.40;99.90;;;;;;5069562;28;20433;-68
2022/07/15 11:36:05;;;;;;;2.60;1.10;;;19.50;99.90;;;;;;5066387;28;20040;-68
2022/07/15 11:38:37;;;;;;;2.10;0.95;;;19.60;99.90;;;;;;5067092;28;20045;-67
2022/07/15 11:46:45;;;;;;;2.78;0.98;;;19.90;99.90;;;;;;5067105;28;20075;-67
2022/07/15 11:49:10;;;;;;;5.57;1.27;;;20.00;99.90;;;;;;5066614;28;20040;-68
2022/07/15 11:51:36;;;;;;;2.85;1.13;;;20.10;99.90;;;;;;5069906;28;20101;-67
2022/07/15 11:54:02;;;;;;;4.15;1.17;;;20.20;99.90;;;;;;5035501;28;20421;-68
2022/07/15 11:56:28;;;;;;;2.10;1.00;;;20.20;99.90;;;;;;5052441;28;20045;-67
2022/07/15 11:58:56;;;;;;;6.55;1.10;;;20.90;99.90;;;;;;5071343;28;20041;-68
2022/07/15 12:01:28;;;;;;;4.03;1.00;;;22.80;99.90;;;;;;5070133;28;20520;-68
2022/07/15 12:03:56;;;;;;;4.45;1.10;;;23.70;99.50;;;;;;5036242;28;20463;-68
2022/07/15 12:06:30;;;;;;;3.85;1.00;;;23.30;98.40;;;;;;5071090;28;20056;-68
2022/07/15 12:09:03;;;;;;;4.18;0.93;;;22.60;98.90;;;;;;5070103;28;20044;-68
2022/07/15 12:11:34;;;;;;;2.80;0.85;;;21.90;99.90;;;;;;5072040;28;20127;-67
2022/07/15 12:14:03;;;;;;;2.80;1.00;;;21.50;99.90;;;;;;5070115;28;20048;-68
2022/07/15 12:16:35;;;;;;;4.97;1.38;;;21.00;99.90;;;;;;5052086;28;20036;-67
2022/07/15 12:19:04;;;;;;;3.70;1.17;;;20.60;99.90;;;;;;5070966;28;20458;-67
2022/07/15 12:21:31;;;;;;;2.75;1.10;;;20.30;99.90;;;;;;5070665;28;20113;-67
2022/07/15 12:24:04;;;;;;;5.57;1.23;;;20.10;99.90;;;;;;5055987;28;20124;-66
2022/07/15 12:26:30;;;;;;;3.70;1.23;;;20.10;99.90;;;;;;5054589;28;20045;-67
2022/07/15 12:28:59;;;;;;;3.95;1.30;;;20.00;99.90;;;;;;5070044;28;20044;-67
2022/07/15 12:31:32;;;;;;;4.25;1.30;;;20.00;99.90;;;;;;5068948;28;20415;-68
2022/07/15 12:33:59;;;;;;;6.45;1.15;;;19.80;99.90;;;;;;5070381;28;20065;-68
2022/07/15 12:36:26;;;;;;;2.67;1.20;;;19.80;99.90;;;;;;5069997;28;20056;-67
2022/07/15 12:39:10;;;;;;;3.58;1.30;;;19.80;99.90;;;;;;5069724;28;20139;-67
2022/07/15 12:41:38;;;;;;;2.60;1.10;;;19.60;99.90;;;;;;5057520;28;20060;-67
2022/07/15 12:44:05;;;;;;;3.08;1.50;;;19.60;99.90;;;;;;5048930;28;20041;-68
2022/07/15 12:46:56;;;;;;;2.70;1.30;;;19.50;99.90;;;;;;5048907;28;20063;-67
2022/07/15 12:49:42;;;;;;;3.45;1.25;;;19.50;99.90;;;;;;5049745;28;20131;-68
2022/07/15 12:52:34;;;;;;;4.82;1.38;;;19.40;99.90;;;;;;5050620;28;20051;-68
2022/07/15 12:55:17;;;;;;;3.33;1.30;;;19.40;99.90;;;;;;5070323;28;20150;-68
2022/07/15 12:57:42;;;;;;;3.08;1.40;;;19.40;99.90;;;;;;5070148;28;20095;-67
2022/07/15 13:00:17;;;;;;;4.57;1.48;;;19.40;99.90;;;;;;5070397;28;20068;-68
2022/07/15 13:03:10;;;;;;;3.38;1.38;;;19.40;99.90;;;;;;5064412;28;20387;-67
2022/07/15 13:05:43;;;;;;;6.13;1.58;;;19.40;99.90;;;;;;5070783;28;20044;-67